createdAt,value
2019-02-04T00:00:46.037Z,99.9
2019-02-04T00:01:53.227Z,99.9
2019-02-04T00:03:00.490Z,99.9
2019-02-04T00:04:07.675Z,99.9
2019-02-04T00:05:14.866Z,99.9
2019-02-04T00:06:22.053Z,99.9
2019-02-04T00:07:29.244Z,99.9
2019-02-04T00:08:36.456Z,99.9
2019-02-04T00:09:43.643Z,99.9
2019-02-04T00:10:50.838Z,99.9
2019-02-04T00:11:57.755Z,99.9
2019-02-04T00:13:04.948Z,99.9
2019-02-04T00:14:12.364Z,99.9
2019-02-04T00:15:19.387Z,99.9
2019-02-04T00:16:26.306Z,99.9
2019-02-04T00:17:33.497Z,99.9
2019-02-04T00:18:40.688Z,99.9
2019-02-04T00:19:47.891Z,99.9
2019-02-04T00:20:54.804Z,99.9
2019-02-04T00:22:02.038Z,99.9
2019-02-04T00:23:09.673Z,99.9
2019-02-04T00:24:17.766Z,99.9
2019-02-04T00:25:25.698Z,99.9
2019-02-04T00:26:33.927Z,99.9
2019-02-04T00:27:42.000Z,99.9
2019-02-04T00:28:50.479Z,99.9
2019-02-04T00:29:58.814Z,99.9
2019-02-04T00:31:07.136Z,99.9
2019-02-04T00:32:15.223Z,99.9
2019-02-04T00:33:23.509Z,99.9
2019-02-04T00:34:31.893Z,99.9
2019-02-04T00:35:39.976Z,99.9
2019-02-04T00:36:47.187Z,99.9
2019-02-04T00:37:54.454Z,99.9
2019-02-04T00:39:02.493Z,99.9
2019-02-04T00:40:09.850Z,99.9
2019-02-04T00:41:17.040Z,99.9
2019-02-04T00:42:24.231Z,99.9
2019-02-04T00:43:31.422Z,99.9
2019-02-04T00:44:38.336Z,99.9
2019-02-04T00:45:45.523Z,99.9
2019-02-04T00:46:52.706Z,99.9
2019-02-04T00:47:59.931Z,99.9
2019-02-04T00:49:07.127Z,99.9
2019-02-04T00:50:14.309Z,99.9
2019-02-04T00:51:21.497Z,99.9
2019-02-04T00:52:28.688Z,99.9
2019-02-04T00:53:35.880Z,99.9
2019-02-04T00:54:42.801Z,99.9
2019-02-04T00:55:49.784Z,99.9
2019-02-04T00:56:56.728Z,99.9
2019-02-04T00:58:03.916Z,99.9
2019-02-04T00:59:11.106Z,99.9
2019-02-04T01:00:18.017Z,99.9
2019-02-04T01:01:25.041Z,99.9
2019-02-04T01:02:32.237Z,99.9
2019-02-04T01:03:39.159Z,99.9
2019-02-04T01:04:46.349Z,99.9
2019-02-04T01:05:53.544Z,99.9
2019-02-04T01:07:00.738Z,99.9
2019-02-04T01:08:07.929Z,99.9
2019-02-04T01:09:15.224Z,99.9
2019-02-04T01:10:22.145Z,99.9
2019-02-04T01:11:29.333Z,99.9
2019-02-04T01:12:36.520Z,99.9
2019-02-04T01:13:43.431Z,99.9
2019-02-04T01:14:50.619Z,99.9
2019-02-04T01:15:57.812Z,99.9
2019-02-04T01:17:05.003Z,99.9
2019-02-04T01:18:12.194Z,99.9
2019-02-04T01:19:19.397Z,99.9
2019-02-04T01:20:26.807Z,99.9
2019-02-04T01:21:34.468Z,99.9
2019-02-04T01:22:42.208Z,99.9
2019-02-04T01:23:50.260Z,99.9
2019-02-04T01:24:58.402Z,99.9
2019-02-04T01:26:06.543Z,99.9
2019-02-04T01:27:14.462Z,99.9
2019-02-04T01:28:22.497Z,99.9
2019-02-04T01:29:30.950Z,99.9
2019-02-04T01:30:39.268Z,99.9
2019-02-04T01:31:47.539Z,99.9
2019-02-04T01:32:55.670Z,99.9
2019-02-04T01:34:03.809Z,99.9
2019-02-04T01:35:11.309Z,99.9
2019-02-04T01:36:18.504Z,99.9
2019-02-04T01:37:25.421Z,99.9
2019-02-04T01:38:32.611Z,99.9
2019-02-04T01:39:39.526Z,99.9
2019-02-04T01:40:46.715Z,99.9
2019-02-04T01:41:53.631Z,99.9
2019-02-04T01:43:00.556Z,99.9
2019-02-04T01:44:07.772Z,99.9
2019-02-04T01:45:14.955Z,99.9
2019-02-04T01:46:21.883Z,99.9
2019-02-04T01:47:29.073Z,99.9
2019-02-04T01:48:35.728Z,99.9
2019-02-04T01:49:42.918Z,99.9
2019-02-04T01:50:50.106Z,99.9
2019-02-04T01:51:57.299Z,99.9
2019-02-04T01:53:04.489Z,99.9
2019-02-04T01:54:11.683Z,99.9
2019-02-04T01:55:18.871Z,99.9
2019-02-04T01:56:26.060Z,99.9
2019-02-04T01:57:32.980Z,99.9
2019-02-04T01:58:40.167Z,99.9
2019-02-04T02:01:09.194Z,99.9
2019-02-04T02:02:16.392Z,99.9
2019-02-04T02:03:23.580Z,99.9
2019-02-04T02:04:30.226Z,99.9
2019-02-04T02:05:37.418Z,99.9
2019-02-04T02:06:44.606Z,99.9
2019-02-04T02:07:51.806Z,99.9
2019-02-04T02:08:58.712Z,99.9
2019-02-04T02:10:05.930Z,99.9
2019-02-04T02:11:13.116Z,99.9
2019-02-04T02:12:20.303Z,99.9
2019-02-04T02:13:27.230Z,99.9
2019-02-04T02:14:33.878Z,99.9
2019-02-04T02:15:41.065Z,99.9
2019-02-04T02:16:48.262Z,99.9
2019-02-04T02:17:55.185Z,99.9
2019-02-04T02:19:02.373Z,99.9
2019-02-04T02:20:09.563Z,99.9
2019-02-04T02:21:16.758Z,99.9
2019-02-04T02:22:23.667Z,99.9
2019-02-04T02:23:30.947Z,99.9
2019-02-04T02:24:38.138Z,99.9
2019-02-04T02:25:45.322Z,99.9
2019-02-04T02:26:52.514Z,99.9
2019-02-04T02:27:59.712Z,99.9
2019-02-04T02:29:06.925Z,99.9
2019-02-04T02:30:14.120Z,99.9
2019-02-04T02:31:21.457Z,99.9
2019-02-04T02:32:28.922Z,99.9
2019-02-04T02:33:37.298Z,99.9
2019-02-04T02:34:45.440Z,99.9
2019-02-04T02:35:53.554Z,99.9
2019-02-04T02:37:01.988Z,99.9
2019-02-04T02:38:10.168Z,99.9
2019-02-04T02:39:17.983Z,99.9
2019-02-04T02:40:25.178Z,99.9
2019-02-04T02:41:32.367Z,99.9
2019-02-04T02:42:39.629Z,99.9
2019-02-04T02:43:46.837Z,99.9
2019-02-04T02:44:54.025Z,99.9
2019-02-04T02:46:01.385Z,99.9
2019-02-04T02:47:08.577Z,99.9
2019-02-04T02:48:15.769Z,99.9
2019-02-04T02:49:22.680Z,99.9
2019-02-04T02:50:29.601Z,99.9
2019-02-04T02:51:36.788Z,99.9
2019-02-04T02:52:43.971Z,99.9
2019-02-04T02:53:51.166Z,99.9
2019-02-04T02:54:58.359Z,99.9
2019-02-04T02:56:05.566Z,99.9
2019-02-04T02:57:12.506Z,99.9
2019-02-04T02:58:19.696Z,99.9
2019-02-04T02:59:26.887Z,99.9
2019-02-04T03:00:34.078Z,99.9
2019-02-04T03:01:41.265Z,99.9
2019-02-04T03:02:48.456Z,99.9
2019-02-04T03:03:55.654Z,99.9
2019-02-04T03:05:02.294Z,99.9
2019-02-04T03:06:08.931Z,99.9
2019-02-04T03:07:16.145Z,99.9
2019-02-04T03:08:23.337Z,99.9
2019-02-04T03:09:30.521Z,99.9
2019-02-04T03:10:37.706Z,99.9
2019-02-04T03:11:44.898Z,99.9
2019-02-04T03:12:52.093Z,99.9
2019-02-04T03:13:58.729Z,99.9
2019-02-04T03:15:05.919Z,99.9
2019-02-04T03:16:13.120Z,99.9
2019-02-04T03:17:20.032Z,99.9
2019-02-04T03:18:27.219Z,99.9
2019-02-04T03:19:34.421Z,99.9
2019-02-04T03:20:41.612Z,99.9
2019-02-04T03:21:48.806Z,99.9
2019-02-04T03:22:56.292Z,99.9
2019-02-04T03:24:04.464Z,99.9
2019-02-04T03:25:12.563Z,99.9
2019-02-04T03:26:20.995Z,99.9
2019-02-04T03:27:29.052Z,99.9
2019-02-04T03:28:37.572Z,99.9
2019-02-04T03:29:45.803Z,99.9
2019-02-04T03:30:54.196Z,99.9
2019-02-04T03:32:02.817Z,99.9
2019-02-04T03:33:11.351Z,99.9
2019-02-04T03:34:19.300Z,99.9
2019-02-04T03:35:27.479Z,99.9
2019-02-04T03:36:35.030Z,99.9
2019-02-04T03:37:42.003Z,99.9
2019-02-04T03:38:48.922Z,99.9
2019-02-04T03:39:56.109Z,99.9
2019-02-04T03:41:03.296Z,99.9
2019-02-04T03:42:10.491Z,99.9
2019-02-04T03:43:17.408Z,99.9
2019-02-04T03:44:24.605Z,99.9
2019-02-04T03:45:31.791Z,99.9
2019-02-04T03:46:38.986Z,99.9
2019-02-04T03:47:46.175Z,99.9
2019-02-04T03:48:53.452Z,99.9
2019-02-04T03:50:00.641Z,99.9
2019-02-04T03:51:07.364Z,99.9
2019-02-04T03:52:14.665Z,99.9
2019-02-04T03:53:21.857Z,99.9
2019-02-04T03:54:28.768Z,99.9
2019-02-04T03:55:35.681Z,99.9
2019-02-04T03:56:42.868Z,99.9
2019-02-04T03:57:49.783Z,99.9
2019-02-04T03:58:56.969Z,99.9
2019-02-04T04:00:03.886Z,99.9
2019-02-04T04:01:11.083Z,99.9
2019-02-04T04:02:18.274Z,99.9
2019-02-04T04:03:25.458Z,99.9
2019-02-04T04:04:32.647Z,99.9
2019-02-04T04:05:39.841Z,99.9
2019-02-04T04:06:47.031Z,99.9
2019-02-04T04:07:54.224Z,99.9
2019-02-04T04:09:01.255Z,99.9
2019-02-04T04:10:08.442Z,99.9
2019-02-04T04:11:15.629Z,99.9
2019-02-04T04:12:22.817Z,99.9
2019-02-04T04:13:30.021Z,99.9
2019-02-04T04:14:37.219Z,99.9
2019-02-04T04:15:43.604Z,99.9
2019-02-04T04:16:50.791Z,99.9
2019-02-04T04:17:57.984Z,99.9
2019-02-04T04:19:05.172Z,99.9
2019-02-04T04:20:12.356Z,99.9
2019-02-04T04:21:19.268Z,99.9
2019-02-04T04:22:26.738Z,99.9
2019-02-04T04:23:34.875Z,99.9
2019-02-04T04:24:42.487Z,99.9
2019-02-04T04:25:50.861Z,99.9
2019-02-04T04:26:58.604Z,99.9
2019-02-04T04:28:06.398Z,99.9
2019-02-04T04:29:14.575Z,99.9
2019-02-04T04:30:22.491Z,99.9
2019-02-04T04:31:29.404Z,99.9
2019-02-04T04:32:36.628Z,99.9
2019-02-04T04:33:43.818Z,99.9
2019-02-04T04:34:51.097Z,99.9
2019-02-04T04:35:58.287Z,99.9
2019-02-04T04:37:05.475Z,99.9
2019-02-04T04:38:12.666Z,99.9
2019-02-04T04:39:19.858Z,99.9
2019-02-04T04:40:27.052Z,99.9
2019-02-04T04:41:34.239Z,99.9
2019-02-04T04:42:41.433Z,99.9
2019-02-04T04:43:48.623Z,99.9
2019-02-04T04:44:55.818Z,99.9
2019-02-04T04:46:03.005Z,99.9
2019-02-04T04:47:10.190Z,99.9
2019-02-04T04:48:26.209Z,99.9
2019-02-04T04:49:33.400Z,99.9
2019-02-04T04:50:40.321Z,99.9
2019-02-04T04:51:47.510Z,99.9
2019-02-04T04:52:54.703Z,99.9
2019-02-04T04:54:01.899Z,99.9
2019-02-04T04:55:09.088Z,99.9
2019-02-04T04:56:16.290Z,99.9
2019-02-04T04:57:23.466Z,99.9
2019-02-04T04:58:30.667Z,99.9
2019-02-04T04:59:37.586Z,99.9
2019-02-04T05:00:44.509Z,99.9
2019-02-04T05:01:51.699Z,99.9
2019-02-04T05:02:58.617Z,99.9
2019-02-04T05:04:05.811Z,99.9
2019-02-04T05:05:12.722Z,99.9
2019-02-04T05:06:19.913Z,99.9
2019-02-04T05:07:27.100Z,99.9
2019-02-04T05:08:34.012Z,99.9
2019-02-04T05:09:41.201Z,99.9
2019-02-04T05:10:48.121Z,99.9
2019-02-04T05:11:55.031Z,99.9
2019-02-04T05:13:02.219Z,99.9
2019-02-04T05:14:09.137Z,99.9
2019-02-04T05:15:16.363Z,99.9
2019-02-04T05:16:23.551Z,99.9
2019-02-04T05:17:30.739Z,99.9
2019-02-04T05:18:38.479Z,99.9
2019-02-04T05:19:45.721Z,99.9
2019-02-04T05:20:53.319Z,99.9
2019-02-04T05:22:00.828Z,99.9
2019-02-04T05:23:08.644Z,99.9
2019-02-04T05:24:16.591Z,99.9
2019-02-04T05:25:24.899Z,99.9
2019-02-04T05:26:33.118Z,99.9
2019-02-04T05:27:41.200Z,99.9
2019-02-04T05:28:49.618Z,99.9
2019-02-04T05:29:57.168Z,99.9
2019-02-04T05:31:05.840Z,99.9
2019-02-04T05:32:14.332Z,99.9
2019-02-04T05:33:22.586Z,99.9
2019-02-04T05:34:30.610Z,99.9
2019-02-04T05:35:38.826Z,99.9
2019-02-04T05:37:52.744Z,99.9
2019-02-04T05:38:59.931Z,99.9
2019-02-04T05:40:06.845Z,99.9
2019-02-04T05:41:14.153Z,99.9
2019-02-04T05:42:21.338Z,99.9
2019-02-04T05:43:28.738Z,99.9
2019-02-04T05:44:35.928Z,99.9
2019-02-04T05:45:43.119Z,99.9
2019-02-04T05:46:52.027Z,99.9
2019-02-04T05:47:59.339Z,99.9
2019-02-04T05:49:06.541Z,99.9
2019-02-04T05:50:13.729Z,99.9
2019-02-04T05:51:24.256Z,99.9
2019-02-04T05:52:31.459Z,99.9
2019-02-04T05:53:38.650Z,99.9
2019-02-04T05:54:45.561Z,99.9
2019-02-04T05:55:52.486Z,99.9
2019-02-04T05:56:59.666Z,99.9
2019-02-04T05:58:06.859Z,99.9
2019-02-04T05:59:13.771Z,99.9
2019-02-04T06:00:20.995Z,99.9
2019-02-04T06:01:28.182Z,99.9
2019-02-04T06:02:35.094Z,99.9
2019-02-04T06:03:42.282Z,99.9
2019-02-04T06:04:49.472Z,99.9
2019-02-04T06:05:56.668Z,99.9
2019-02-04T06:07:03.587Z,99.9
2019-02-04T06:08:10.767Z,99.9
2019-02-04T06:09:17.958Z,99.9
2019-02-04T06:10:25.146Z,99.9
2019-02-04T06:11:32.339Z,99.9
2019-02-04T06:12:39.262Z,99.9
2019-02-04T06:13:46.462Z,99.9
2019-02-04T06:14:53.375Z,99.9
2019-02-04T06:16:00.568Z,99.9
2019-02-04T06:17:07.488Z,99.9
2019-02-04T06:18:14.688Z,99.9
2019-02-04T06:19:21.602Z,99.9
2019-02-04T06:20:28.800Z,99.9
2019-02-04T06:21:36.415Z,99.9
2019-02-04T06:22:43.597Z,99.9
2019-02-04T06:23:51.476Z,99.9
2019-02-04T06:24:59.263Z,99.9
2019-02-04T06:26:07.696Z,99.9
2019-02-04T06:27:15.460Z,99.9
2019-02-04T06:28:23.413Z,99.9
2019-02-04T06:29:33.822Z,99.9
2019-02-04T06:30:41.987Z,99.9
2019-02-04T06:31:50.189Z,99.9
2019-02-04T06:32:58.419Z,99.9
2019-02-04T06:34:06.526Z,99.9
2019-02-04T06:35:14.903Z,99.9
2019-02-04T06:36:23.563Z,99.9
2019-02-04T06:37:32.161Z,99.9
2019-02-04T06:38:40.767Z,99.9
2019-02-04T06:39:48.347Z,99.9
2019-02-04T06:40:55.103Z,99.9
2019-02-04T06:42:02.017Z,99.9
2019-02-04T06:43:09.223Z,99.9
2019-02-04T06:44:16.520Z,99.9
2019-02-04T06:45:23.706Z,99.9
2019-02-04T06:46:30.625Z,99.9
2019-02-04T06:47:37.815Z,99.9
2019-02-04T06:48:45.002Z,99.9
2019-02-04T06:49:52.194Z,99.9
2019-02-04T06:50:59.377Z,99.9
2019-02-04T06:52:06.393Z,99.9
2019-02-04T06:53:13.582Z,99.9
2019-02-04T06:54:20.774Z,99.9
2019-02-04T06:55:27.779Z,99.9
2019-02-04T06:56:36.012Z,99.9
2019-02-04T06:57:43.410Z,99.9
2019-02-04T06:58:50.321Z,99.9
2019-02-04T06:59:57.515Z,99.9
2019-02-04T07:01:04.700Z,99.9
2019-02-04T07:02:11.629Z,99.9
2019-02-04T07:03:18.551Z,99.9
2019-02-04T07:04:25.463Z,99.9
2019-02-04T07:05:43.120Z,99.9
2019-02-04T07:06:50.954Z,99.9
2019-02-04T07:07:57.868Z,99.9
2019-02-04T07:09:04.782Z,99.9
2019-02-04T07:10:11.972Z,99.9
2019-02-04T07:11:18.880Z,99.9
2019-02-04T07:12:25.797Z,99.9
2019-02-04T07:13:32.984Z,99.9
2019-02-04T07:14:40.177Z,99.9
2019-02-04T07:15:47.365Z,99.9
2019-02-04T07:16:54.553Z,99.9
2019-02-04T07:18:02.242Z,99.9
2019-02-04T07:19:09.450Z,99.9
2019-02-04T07:20:16.639Z,99.9
2019-02-04T07:21:23.549Z,99.9
2019-02-04T07:22:30.749Z,99.9
2019-02-04T07:23:37.930Z,99.9
2019-02-04T07:24:45.124Z,99.9
2019-02-04T07:25:52.313Z,99.9
2019-02-04T07:26:59.501Z,99.9
2019-02-04T07:28:07.190Z,99.9
2019-02-04T07:29:15.264Z,99.9
2019-02-04T07:30:23.238Z,99.9
2019-02-04T07:31:31.706Z,99.9
2019-02-04T07:32:40.347Z,99.9
2019-02-04T07:33:48.658Z,99.9
2019-02-04T07:34:56.910Z,99.9
2019-02-04T07:36:05.062Z,99.9
2019-02-04T07:37:11.983Z,99.9
2019-02-04T07:39:41.054Z,99.9
2019-02-04T07:40:48.241Z,99.9
2019-02-04T07:41:55.579Z,99.9
2019-02-04T07:43:03.765Z,99.9
2019-02-04T07:44:11.910Z,99.9
2019-02-04T07:45:19.935Z,99.9
2019-02-04T07:46:28.379Z,99.9
2019-02-04T07:47:36.867Z,99.9
2019-02-04T07:48:45.115Z,99.9
2019-02-04T07:49:53.602Z,99.9
2019-02-04T07:51:01.889Z,99.9
2019-02-04T07:52:10.464Z,99.9
2019-02-04T07:53:18.921Z,99.9
2019-02-04T07:54:27.042Z,99.9
2019-02-04T07:55:35.066Z,99.9
2019-02-04T07:56:42.250Z,99.9
2019-02-04T07:57:48.888Z,99.9
2019-02-04T07:58:56.075Z,99.9
2019-02-04T08:00:03.268Z,99.9
2019-02-04T08:01:10.455Z,99.9
2019-02-04T08:02:17.723Z,99.9
2019-02-04T08:03:24.970Z,99.9
2019-02-04T08:04:32.156Z,99.9
2019-02-04T08:05:38.794Z,99.9
2019-02-04T08:06:45.986Z,99.9
2019-02-04T08:07:53.182Z,99.9
2019-02-04T08:09:00.371Z,99.9
2019-02-04T08:10:07.562Z,99.9
2019-02-04T08:11:14.471Z,99.9
2019-02-04T08:12:21.664Z,99.9
2019-02-04T08:13:28.854Z,99.9
2019-02-04T08:14:35.773Z,99.9
2019-02-04T08:15:42.971Z,99.9
2019-02-04T08:16:49.893Z,99.9
2019-02-04T08:17:57.095Z,99.9
2019-02-04T08:19:04.285Z,99.9
2019-02-04T08:20:11.477Z,99.9
2019-02-04T08:21:18.391Z,99.9
2019-02-04T08:22:25.583Z,99.9
2019-02-04T08:23:32.774Z,99.9
2019-02-04T08:24:39.966Z,99.9
2019-02-04T08:25:47.160Z,99.9
2019-02-04T08:26:54.345Z,99.9
2019-02-04T08:28:01.537Z,99.9
2019-02-04T08:29:08.728Z,99.9
2019-02-04T08:30:15.916Z,99.9
2019-02-04T08:31:22.845Z,99.9
2019-02-04T08:32:29.759Z,99.9
2019-02-04T08:33:36.400Z,99.9
2019-02-04T08:34:43.592Z,99.9
2019-02-04T08:35:50.879Z,99.9
2019-02-04T08:36:58.485Z,99.9
2019-02-04T08:38:06.640Z,99.9
2019-02-04T08:39:15.063Z,99.9
2019-02-04T08:40:23.076Z,99.9
2019-02-04T08:41:31.687Z,99.9
2019-02-04T08:42:39.910Z,99.9
2019-02-04T08:43:47.742Z,99.9
2019-02-04T08:44:54.936Z,99.9
2019-02-04T08:46:02.286Z,99.9
2019-02-04T08:47:09.482Z,99.9
2019-02-04T08:48:28.676Z,99.9
2019-02-04T08:49:36.803Z,99.9
2019-02-04T08:50:45.064Z,99.9
2019-02-04T08:51:53.391Z,99.9
2019-02-04T08:53:01.880Z,99.9
2019-02-04T08:54:09.397Z,99.9
2019-02-04T08:55:16.586Z,99.9
2019-02-04T08:56:23.782Z,99.9
2019-02-04T08:57:30.978Z,99.9
2019-02-04T08:58:38.269Z,99.9
2019-02-04T08:59:45.192Z,99.9
2019-02-04T09:00:52.384Z,99.9
2019-02-04T09:01:59.569Z,99.9
2019-02-04T09:03:06.482Z,99.9
2019-02-04T09:04:13.671Z,99.9
2019-02-04T09:05:20.986Z,99.9
2019-02-04T09:06:28.172Z,99.9
2019-02-04T09:07:35.098Z,99.9
2019-02-04T09:08:42.290Z,99.9
2019-02-04T09:09:49.477Z,99.9
2019-02-04T09:10:56.678Z,99.9
2019-02-04T09:12:03.592Z,99.9
2019-02-04T09:13:10.785Z,99.9
2019-02-04T09:14:17.978Z,99.9
2019-02-04T09:15:24.904Z,99.9
2019-02-04T09:16:32.108Z,99.9
2019-02-04T09:17:39.327Z,99.9
2019-02-04T09:18:46.516Z,99.9
2019-02-04T09:19:53.708Z,99.9
2019-02-04T09:21:00.905Z,99.9
2019-02-04T09:22:08.096Z,99.9
2019-02-04T09:23:15.297Z,99.9
2019-02-04T09:24:22.510Z,99.9
2019-02-04T09:25:29.419Z,99.9
2019-02-04T09:26:36.839Z,99.9
2019-02-04T09:27:44.037Z,99.9
2019-02-04T09:28:51.387Z,99.9
2019-02-04T09:29:58.911Z,99.9
2019-02-04T09:31:07.318Z,99.9
2019-02-04T09:32:15.110Z,99.9
2019-02-04T09:33:23.494Z,99.9
2019-02-04T09:34:31.763Z,99.9
2019-02-04T09:35:40.011Z,99.9
2019-02-04T09:36:48.459Z,99.9
2019-02-04T09:37:56.711Z,99.9
2019-02-04T09:39:04.183Z,99.9
2019-02-04T09:40:11.102Z,99.9
2019-02-04T09:41:17.748Z,99.9
2019-02-04T09:42:25.046Z,99.9
2019-02-04T09:43:32.258Z,99.9
2019-02-04T09:44:38.898Z,99.9
2019-02-04T09:45:46.092Z,99.9
2019-02-04T09:46:53.294Z,99.9
2019-02-04T09:48:00.493Z,99.9
2019-02-04T09:49:07.419Z,99.9
2019-02-04T09:50:21.352Z,99.9
2019-02-04T09:51:29.025Z,99.9
2019-02-04T09:52:35.959Z,99.9
2019-02-04T09:53:43.161Z,99.9
2019-02-04T09:54:50.361Z,99.9
2019-02-04T09:55:57.553Z,99.9
2019-02-04T09:57:04.749Z,99.9
2019-02-04T09:58:11.940Z,99.9
2019-02-04T09:59:19.130Z,99.9
2019-02-04T10:00:26.317Z,99.9
2019-02-04T10:01:33.513Z,99.9
2019-02-04T10:02:40.701Z,99.9
2019-02-04T10:03:47.898Z,99.9
2019-02-04T10:04:55.092Z,99.9
2019-02-04T10:06:02.020Z,99.9
2019-02-04T10:07:09.208Z,99.9
2019-02-04T10:08:16.402Z,99.9
2019-02-04T10:09:23.591Z,99.9
2019-02-04T10:10:30.781Z,99.9
2019-02-04T10:11:38.089Z,99.9
2019-02-04T10:12:45.005Z,99.9
2019-02-04T10:13:51.925Z,99.9
2019-02-04T10:14:59.122Z,99.9
2019-02-04T10:16:06.650Z,99.9
2019-02-04T10:17:13.886Z,99.9
2019-02-04T10:18:21.239Z,99.9
2019-02-04T10:19:28.491Z,99.9
2019-02-04T10:20:35.754Z,99.9
2019-02-04T10:21:43.048Z,99.9
2019-02-04T10:22:50.311Z,99.9
2019-02-04T10:23:57.625Z,99.9
2019-02-04T10:25:04.850Z,99.9
2019-02-04T10:26:12.405Z,99.9
2019-02-04T10:27:19.868Z,99.9
2019-02-04T10:28:28.030Z,99.9
2019-02-04T10:29:36.184Z,99.9
2019-02-04T10:30:44.367Z,99.9
2019-02-04T10:31:52.827Z,99.9
2019-02-04T10:33:01.242Z,99.9
2019-02-04T10:34:09.848Z,99.9
2019-02-04T10:35:18.283Z,99.9
2019-02-04T10:36:26.678Z,99.9
2019-02-04T10:37:34.997Z,99.9
2019-02-04T10:38:43.420Z,99.9
2019-02-04T10:39:51.154Z,99.9
2019-02-04T10:40:59.192Z,99.9
2019-02-04T10:42:06.519Z,99.9
2019-02-04T10:43:13.825Z,99.9
2019-02-04T10:44:21.173Z,99.9
2019-02-04T10:45:28.421Z,99.9
2019-02-04T10:46:35.690Z,99.9
2019-02-04T10:47:42.731Z,99.9
2019-02-04T10:48:50.012Z,99.9
2019-02-04T10:49:57.235Z,99.9
2019-02-04T10:51:04.524Z,99.9
2019-02-04T10:52:11.811Z,99.9
2019-02-04T10:53:19.098Z,99.9
2019-02-04T10:54:26.589Z,99.9
2019-02-04T10:55:33.886Z,99.9
2019-02-04T10:56:41.206Z,99.9
2019-02-04T10:57:48.431Z,99.9
2019-02-04T10:58:55.508Z,99.9
2019-02-04T11:00:02.502Z,99.9
2019-02-04T11:01:09.870Z,99.9
2019-02-04T11:02:16.960Z,99.9
2019-02-04T11:03:23.992Z,99.9
2019-02-04T11:04:31.188Z,99.9
2019-02-04T11:05:38.434Z,99.9
2019-02-04T11:06:45.751Z,99.9
2019-02-04T11:07:52.982Z,99.9
2019-02-04T11:09:00.241Z,99.9
2019-02-04T11:10:07.527Z,99.9
2019-02-04T11:11:14.907Z,99.9
2019-02-04T11:12:22.177Z,99.9
2019-02-04T11:13:29.451Z,99.9
2019-02-04T11:14:36.682Z,99.9
2019-02-04T11:15:43.911Z,99.9
2019-02-04T11:16:51.325Z,99.9
2019-02-04T11:17:58.608Z,99.9
2019-02-04T11:19:05.994Z,99.9
2019-02-04T11:20:13.250Z,99.9
2019-02-04T11:21:20.498Z,99.9
2019-02-04T11:22:27.772Z,99.9
2019-02-04T11:23:35.069Z,99.9
2019-02-04T11:24:42.448Z,99.9
2019-02-04T11:25:50.398Z,99.9
2019-02-04T11:26:58.341Z,99.9
2019-02-04T11:28:06.534Z,99.9
2019-02-04T11:29:14.920Z,99.9
2019-02-04T11:30:25.606Z,99.9
2019-02-04T11:31:33.717Z,99.9
2019-02-04T11:32:41.556Z,99.9
2019-02-04T11:33:49.715Z,99.9
2019-02-04T11:34:57.844Z,99.9
2019-02-04T11:36:06.378Z,99.9
2019-02-04T11:37:14.612Z,99.9
2019-02-04T11:38:23.094Z,99.9
2019-02-04T11:39:31.598Z,99.9
2019-02-04T11:40:39.828Z,99.9
2019-02-04T11:41:48.727Z,99.9
2019-02-04T11:42:57.067Z,99.9
2019-02-04T11:44:05.739Z,99.9
2019-02-04T11:45:13.685Z,99.9
2019-02-04T11:46:21.767Z,99.9
2019-02-04T11:47:28.987Z,99.9
2019-02-04T11:48:36.278Z,99.9
2019-02-04T11:49:43.268Z,99.9
2019-02-04T11:50:50.462Z,99.9
2019-02-04T11:51:57.659Z,99.9
2019-02-04T11:53:04.317Z,99.9
2019-02-04T11:54:11.512Z,99.9
2019-02-04T11:55:18.710Z,99.9
2019-02-04T11:56:25.906Z,99.9
2019-02-04T11:57:33.103Z,99.9
2019-02-04T11:58:40.299Z,99.9
2019-02-04T11:59:47.494Z,99.9
2019-02-04T12:00:54.687Z,99.9
2019-02-04T12:02:01.888Z,99.9
2019-02-04T12:03:08.813Z,99.9
2019-02-04T12:04:16.008Z,99.9
2019-02-04T12:05:23.211Z,99.9
2019-02-04T12:06:29.882Z,99.9
2019-02-04T12:07:37.075Z,99.9
2019-02-04T12:08:44.272Z,99.9
2019-02-04T12:09:51.467Z,99.9
2019-02-04T12:10:58.672Z,99.9
2019-02-04T12:12:05.868Z,99.9
2019-02-04T12:13:13.068Z,99.9
2019-02-04T12:14:20.269Z,99.9
2019-02-04T12:15:27.464Z,99.9
2019-02-04T12:16:34.167Z,99.9
2019-02-04T12:17:41.359Z,99.9
2019-02-04T12:18:48.555Z,99.9
2019-02-04T12:19:55.488Z,99.9
2019-02-04T12:21:02.682Z,99.9
2019-02-04T12:22:09.610Z,99.9
2019-02-04T12:23:16.530Z,99.9
2019-02-04T12:24:23.451Z,99.9
2019-02-04T12:25:30.771Z,99.9
2019-02-04T12:26:37.965Z,99.9
2019-02-04T12:27:45.366Z,99.9
2019-02-04T12:28:53.582Z,99.9
2019-02-04T12:30:04.201Z,99.9
2019-02-04T12:31:11.987Z,99.9
2019-02-04T12:32:19.816Z,99.9
2019-02-04T12:33:28.085Z,99.9
2019-02-04T12:34:36.505Z,99.9
2019-02-04T12:35:44.885Z,99.9
2019-02-04T12:36:53.177Z,99.9
2019-02-04T12:38:01.690Z,99.9
2019-02-04T12:39:10.043Z,99.9
2019-02-04T12:40:17.969Z,99.9
2019-02-04T12:41:25.309Z,99.9
2019-02-04T12:42:32.503Z,99.9
2019-02-04T12:43:39.706Z,99.9
2019-02-04T12:44:46.985Z,99.9
2019-02-04T12:45:54.183Z,99.9
2019-02-04T12:47:01.382Z,99.9
2019-02-04T12:48:08.580Z,99.9
2019-02-04T12:49:15.499Z,99.9
2019-02-04T12:50:25.834Z,99.9
2019-02-04T12:51:33.872Z,99.9
2019-02-04T12:52:40.891Z,99.9
2019-02-04T12:53:48.082Z,99.9
2019-02-04T12:54:55.006Z,99.9
2019-02-04T12:56:02.210Z,99.9
2019-02-04T12:57:09.410Z,99.9
2019-02-04T12:58:16.603Z,96.3
2019-02-04T12:59:23.799Z,96
2019-02-04T13:00:31.001Z,97.6
2019-02-04T13:01:38.196Z,99.9
2019-02-04T13:02:45.394Z,99.9
2019-02-04T13:03:52.318Z,93.2
2019-02-04T13:04:59.255Z,97.6
2019-02-04T13:06:06.487Z,85.8
2019-02-04T13:07:13.682Z,74.4
2019-02-04T13:08:20.065Z,96.8
2019-02-04T13:09:27.263Z,94
2019-02-04T13:10:34.476Z,81.5
2019-02-04T13:11:42.482Z,97.3
2019-02-04T13:12:49.682Z,95.6
2019-02-04T13:13:56.880Z,98.3
2019-02-04T13:15:04.091Z,91.6
2019-02-04T13:16:11.291Z,88.3
2019-02-04T13:17:18.514Z,90.6
2019-02-04T13:18:25.441Z,91.5
2019-02-04T13:19:32.641Z,95.2
2019-02-04T13:20:39.843Z,79
2019-02-04T13:21:47.042Z,92.4
2019-02-04T13:22:54.243Z,95
2019-02-04T13:24:01.444Z,91.7
2019-02-04T13:25:08.642Z,85.5
2019-02-04T13:26:16.436Z,82.8
2019-02-04T13:27:24.234Z,83.3
2019-02-04T13:28:32.635Z,75.6
2019-02-04T13:29:40.968Z,78.4
2019-02-04T13:30:49.311Z,86.3
2019-02-04T13:31:57.847Z,77.7
2019-02-04T13:33:05.990Z,90.1
2019-02-04T13:34:14.025Z,82.9
2019-02-04T13:35:22.417Z,82.6
2019-02-04T13:36:30.877Z,92.2
2019-02-04T13:37:38.724Z,82.7
2019-02-04T13:38:46.542Z,75.1
2019-02-04T13:39:53.740Z,90.3
2019-02-04T13:41:07.658Z,70.7
2019-02-04T13:42:18.893Z,85.4
2019-02-04T13:43:26.689Z,88.2
2019-02-04T13:44:35.053Z,90.7
2019-02-04T13:45:43.238Z,92.9
2019-02-04T13:46:51.537Z,93.6
2019-02-04T13:47:59.732Z,70
2019-02-04T13:49:08.251Z,81.6
2019-02-04T13:50:16.620Z,67
2019-02-04T13:51:25.060Z,51
2019-02-04T13:52:36.120Z,49.9
2019-02-04T13:53:44.500Z,63.1
2019-02-04T13:54:52.600Z,66.7
2019-02-04T13:56:00.853Z,75.7
2019-02-04T13:57:08.996Z,65.7
2019-02-04T13:58:17.279Z,64.8
2019-02-04T13:59:28.498Z,75.5
2019-02-04T14:00:36.871Z,52
2019-02-04T14:01:45.074Z,56.2
2019-02-04T14:02:59.067Z,63.8
2019-02-04T14:04:06.682Z,60.6
2019-02-04T14:05:13.883Z,68.6
2019-02-04T14:06:22.033Z,64.7
2019-02-04T14:07:29.637Z,62.3
2019-02-04T14:08:37.850Z,69.1
2019-02-04T14:09:45.963Z,69.7
2019-02-04T14:10:54.290Z,54.1
2019-02-04T14:12:02.408Z,69.6
2019-02-04T14:13:10.811Z,65.7
2019-02-04T14:14:18.914Z,63.8
2019-02-04T14:15:27.272Z,63.6
2019-02-04T14:16:35.648Z,69.1
2019-02-04T14:17:43.727Z,50.2
2019-02-04T14:18:51.975Z,75.4
2019-02-04T14:20:00.014Z,84.5
2019-02-04T14:21:08.844Z,65.6
2019-02-04T14:22:17.035Z,46.2
2019-02-04T14:23:27.486Z,77
2019-02-04T14:24:35.969Z,54.6
2019-02-04T14:25:44.461Z,83.4
2019-02-04T14:26:52.968Z,59.7
2019-02-04T14:28:03.438Z,65.3
2019-02-04T14:29:13.117Z,65.9
2019-02-04T14:30:20.947Z,63.4
2019-02-04T14:31:29.291Z,68.1
2019-02-04T14:32:37.249Z,44.9
2019-02-04T14:33:45.693Z,51.1
2019-02-04T14:34:54.649Z,51.4
2019-02-04T14:36:02.982Z,54.7
2019-02-04T14:37:11.461Z,86.5
2019-02-04T14:38:19.495Z,70.8
2019-02-04T14:39:27.897Z,63.3
2019-02-04T14:40:36.255Z,69.2
2019-02-04T14:41:44.912Z,57.9
2019-02-04T14:42:52.887Z,64.4
2019-02-04T14:44:01.091Z,80.9
2019-02-04T14:45:08.951Z,78.6
2019-02-04T14:46:16.123Z,89
2019-02-04T14:48:44.900Z,93.4
2019-02-04T14:49:52.112Z,88.4
2019-02-04T14:50:59.304Z,91.4
2019-02-04T14:52:06.235Z,88.1
2019-02-04T14:53:13.514Z,91.9
2019-02-04T14:54:21.454Z,82.9
2019-02-04T14:55:29.350Z,80.4
2019-02-04T14:56:37.381Z,91.5
2019-02-04T14:57:45.116Z,85
2019-02-04T14:58:53.378Z,82.3
2019-02-04T15:00:01.259Z,92.9
2019-02-04T15:01:09.670Z,91.3
2019-02-04T15:02:17.854Z,76.6
2019-02-04T15:03:26.063Z,90.6
2019-02-04T15:04:34.383Z,90.8
2019-02-04T15:05:42.579Z,91.7